sensor_id;sensor_type;location;lat;lon;timestamp;pressure;altitude;pressure_sealevel;temperature;humidity
55263;BME280;41125;48.752;9.168;2023-04-15T00:00:25;95898.03;;;5.80;68.39
55263;BME280;41125;48.752;9.168;2023-04-15T00:00:57;95895.34;;;5.80;68.24
55263;BME280;41125;48.752;9.168;2023-04-15T00:01:29;95892.66;;;5.80;68.25
55263;BME280;41125;48.752;9.168;2023-04-15T00:02:16;95892.66;;;5.80;68.44
55263;BME280;41125;48.752;9.168;2023-04-15T00:02:48;95898.03;;;5.80;68.53
55263;BME280;41125;48.752;9.168;2023-04-15T00:03:19;95892.66;;;5.80;68.37
55263;BME280;41125;48.752;9.168;2023-04-15T00:03:51;95894.81;;;5.78;68.29
55263;BME280;41125;48.752;9.168;2023-04-15T00:04:24;95889.44;;;5.78;68.47
55263;BME280;41125;48.752;9.168;2023-04-15T00:04:55;95896.44;;;5.79;68.48
55263;BME280;41125;48.752;9.168;2023-04-15T00:05:28;95900.22;;;5.78;68.69
55263;BME280;41125;48.752;9.168;2023-04-15T00:06:00;95890.53;;;5.77;68.45
55263;BME280;41125;48.752;9.168;2023-04-15T00:06:32;95891.34;;;5.78;68.65
55263;BME280;41125;48.752;9.168;2023-04-15T00:07:03;95893.22;;;5.77;68.69
55263;BME280;41125;48.752;9.168;2023-04-15T00:07:35;95888.13;;;5.76;68.56
55263;BME280;41125;48.752;9.168;2023-04-15T00:08:06;95890.81;;;5.76;68.58
55263;BME280;41125;48.752;9.168;2023-04-15T00:08:38;95899.97;;;5.75;68.78
55263;BME280;41125;48.752;9.168;2023-04-15T00:09:09;95898.09;;;5.75;68.61
55263;BME280;41125;48.752;9.168;2023-04-15T00:09:41;95899.19;;;5.74;68.67
55263;BME280;41125;48.752;9.168;2023-04-15T00:10:13;95890.59;;;5.72;68.67
55263;BME280;41125;48.752;9.168;2023-04-15T00:10:45;95895.16;;;5.71;68.87
55263;BME280;41125;48.752;9.168;2023-04-15T00:11:17;95898.94;;;5.70;69.07
55263;BME280;41125;48.752;9.168;2023-04-15T00:11:49;95901.91;;;5.69;69.69
55263;BME280;41125;48.752;9.168;2023-04-15T00:12:21;95898.72;;;5.67;69.23
55263;BME280;41125;48.752;9.168;2023-04-15T00:12:52;95905.19;;;5.66;69.04
55263;BME280;41125;48.752;9.168;2023-04-15T00:13:24;95897.09;;;5.66;69.19
55263;BME280;41125;48.752;9.168;2023-04-15T00:13:55;95894.41;;;5.66;69.37
55263;BME280;41125;48.752;9.168;2023-04-15T00:14:26;95892.81;;;5.65;69.47
55263;BME280;41125;48.752;9.168;2023-04-15T00:14:58;95901.69;;;5.65;69.24
55263;BME280;41125;48.752;9.168;2023-04-15T00:15:29;95904.66;;;5.64;69.39
55263;BME280;41125;48.752;9.168;2023-04-15T00:16:00;95901.97;;;5.64;69.29
55263;BME280;41125;48.752;9.168;2023-04-15T00:16:32;95896.59;;;5.64;69.12
55263;BME280;41125;48.752;9.168;2023-04-15T00:17:03;95900.37;;;5.63;69.13
55263;BME280;41125;48.752;9.168;2023-04-15T00:17:35;95894.47;;;5.61;69.25
55263;BME280;41125;48.752;9.168;2023-04-15T00:18:08;95899.84;;;5.61;69.21
55263;BME280;41125;48.752;9.168;2023-04-15T00:18:39;95896.62;;;5.59;69.35
55263;BME280;41125;48.752;9.168;2023-04-15T00:19:11;95899.31;;;5.59;69.45
55263;BME280;41125;48.752;9.168;2023-04-15T00:19:43;95902.00;;;5.59;69.59
55263;BME280;41125;48.752;9.168;2023-04-15T00:20:17;95893.44;;;5.57;69.70
55263;BME280;41125;48.752;9.168;2023-04-15T00:20:48;95900.41;;;5.58;69.52
55263;BME280;41125;48.752;9.168;2023-04-15T00:21:20;95895.03;;;5.58;69.80
55263;BME280;41125;48.752;9.168;2023-04-15T00:21:51;95896.91;;;5.57;69.69
55263;BME280;41125;48.752;9.168;2023-04-15T00:22:23;95901.50;;;5.57;70.03
55263;BME280;41125;48.752;9.168;2023-04-15T00:22:54;95901.50;;;5.57;69.63
55263;BME280;41125;48.752;9.168;2023-04-15T00:23:25;95907.97;;;5.56;69.65
55263;BME280;41125;48.752;9.168;2023-04-15T00:23:56;95901.50;;;5.57;70.01
55263;BME280;41125;48.752;9.168;2023-04-15T00:24:28;95898.00;;;5.56;69.69
55263;BME280;41125;48.752;9.168;2023-04-15T00:25:00;95899.87;;;5.56;70.10
55263;BME280;41125;48.752;9.168;2023-04-15T00:25:32;95900.97;;;5.55;69.90
55263;BME280;41125;48.752;9.168;2023-04-15T00:26:04;95897.50;;;5.54;70.01
55263;BME280;41125;48.752;9.168;2023-04-15T00:26:35;95895.91;;;5.53;70.05
55263;BME280;41125;48.752;9.168;2023-04-15T00:27:06;95899.41;;;5.54;69.81
55263;BME280;41125;48.752;9.168;2023-04-15T00:27:38;95894.03;;;5.54;70.12
55263;BME280;41125;48.752;9.168;2023-04-15T00:28:10;95889.72;;;5.53;70.03
55263;BME280;41125;48.752;9.168;2023-04-15T00:28:41;95890.81;;;5.52;69.88
55263;BME280;41125;48.752;9.168;2023-04-15T00:29:13;95891.09;;;5.50;69.79
55263;BME280;41125;48.752;9.168;2023-04-15T00:29:45;95889.50;;;5.49;69.84
55263;BME280;41125;48.752;9.168;2023-04-15T00:30:16;95889.78;;;5.48;69.71
55263;BME280;41125;48.752;9.168;2023-04-15T00:30:49;95891.94;;;5.46;69.84
55263;BME280;41125;48.752;9.168;2023-04-15T00:31:20;95893.56;;;5.47;69.73
55263;BME280;41125;48.752;9.168;2023-04-15T00:31:52;95892.75;;;5.46;69.91
55263;BME280;41125;48.752;9.168;2023-04-15T00:32:24;95891.94;;;5.46;69.82
55263;BME280;41125;48.752;9.168;2023-04-15T00:32:56;95890.84;;;5.47;70.05
55263;BME280;41125;48.752;9.168;2023-04-15T00:33:28;95886.56;;;5.46;69.80
55263;BME280;41125;48.752;9.168;2023-04-15T00:34:00;95891.94;;;5.46;70.01
55263;BME280;41125;48.752;9.168;2023-04-15T00:34:32;95889.78;;;5.48;69.90
55263;BME280;41125;48.752;9.168;2023-04-15T00:35:04;95887.09;;;5.48;70.06
55263;BME280;41125;48.752;9.168;2023-04-15T00:35:36;95889.78;;;5.48;69.96
55263;BME280;41125;48.752;9.168;2023-04-15T00:36:08;95885.19;;;5.48;70.04
55263;BME280;41125;48.752;9.168;2023-04-15T00:36:41;95886.00;;;5.49;69.57
55263;BME280;41125;48.752;9.168;2023-04-15T00:37:12;95874.44;;;5.48;69.79
55263;BME280;41125;48.752;9.168;2023-04-15T00:37:45;95884.91;;;5.50;69.65
55263;BME280;41125;48.752;9.168;2023-04-15T00:38:17;95886.00;;;5.49;69.79
55263;BME280;41125;48.752;9.168;2023-04-15T00:38:49;95884.41;;;5.48;69.41
55263;BME280;41125;48.752;9.168;2023-04-15T00:39:22;95879.00;;;5.48;69.90
55263;BME280;41125;48.752;9.168;2023-04-15T00:39:53;95888.16;;;5.47;69.73
55263;BME280;41125;48.752;9.168;2023-04-15T00:40:25;95888.97;;;5.47;69.90
55263;BME280;41125;48.752;9.168;2023-04-15T00:40:57;95884.41;;;5.48;69.75
55263;BME280;41125;48.752;9.168;2023-04-15T00:41:29;95888.16;;;5.47;70.05
55263;BME280;41125;48.752;9.168;2023-04-15T00:42:01;95883.88;;;5.46;69.96
55263;BME280;41125;48.752;9.168;2023-04-15T00:42:34;95883.34;;;5.44;70.08
55263;BME280;41125;48.752;9.168;2023-04-15T00:43:06;95880.94;;;5.42;69.83
55263;BME280;41125;48.752;9.168;2023-04-15T00:43:37;95880.16;;;5.42;70.07
55263;BME280;41125;48.752;9.168;2023-04-15T00:44:09;95878.53;;;5.41;70.13
55263;BME280;41125;48.752;9.168;2023-04-15T00:44:40;95882.31;;;5.39;70.30
55263;BME280;41125;48.752;9.168;2023-04-15T00:45:12;95872.34;;;5.40;70.53
55263;BME280;41125;48.752;9.168;2023-04-15T00:45:43;95878.03;;;5.38;70.53
55263;BME280;41125;48.752;9.168;2023-04-15T00:46:18;95880.72;;;5.38;70.32
55263;BME280;41125;48.752;9.168;2023-04-15T00:46:51;95877.50;;;5.36;70.83
55263;BME280;41125;48.752;9.168;2023-04-15T00:47:22;95883.97;;;5.35;70.82
55263;BME280;41125;48.752;9.168;2023-04-15T00:47:54;95879.66;;;5.34;71.23
55263;BME280;41125;48.752;9.168;2023-04-15T00:48:27;95880.22;;;5.31;71.12
55263;BME280;41125;48.752;9.168;2023-04-15T00:48:58;95887.50;;;5.31;71.57
55263;BME280;41125;48.752;9.168;2023-04-15T00:49:30;95885.09;;;5.29;71.89
55263;BME280;41125;48.752;9.168;2023-04-15T00:50:06;95879.19;;;5.27;71.83
55263;BME280;41125;48.752;9.168;2023-04-15T00:50:38;95885.13;;;5.24;72.63
55263;BME280;41125;48.752;9.168;2023-04-15T00:51:09;95883.53;;;5.23;72.95
55263;BME280;41125;48.752;9.168;2023-04-15T00:51:43;95877.94;;;5.20;72.93
55263;BME280;41125;48.752;9.168;2023-04-15T00:52:15;95872.88;;;5.13;73.30
55263;BME280;41125;48.752;9.168;2023-04-15T00:52:46;95886.34;;;5.13;73.51
55263;BME280;41125;48.752;9.168;2023-04-15T00:53:17;95887.97;;;5.09;73.99
55263;BME280;41125;48.752;9.168;2023-04-15T00:53:49;95885.31;;;5.04;73.98
55263;BME280;41125;48.752;9.168;2023-04-15T00:54:21;95885.09;;;5.00;74.19
55263;BME280;41125;48.752;9.168;2023-04-15T00:54:53;95882.69;;;4.99;73.89
55263;BME280;41125;48.752;9.168;2023-04-15T00:55:24;95884.28;;;5.00;74.09
55263;BME280;41125;48.752;9.168;2023-04-15T00:55:55;95884.28;;;5.00;73.90
55263;BME280;41125;48.752;9.168;2023-04-15T00:56:29;95887.50;;;5.02;73.67
55263;BME280;41125;48.752;9.168;2023-04-15T00:57:01;95884.81;;;5.02;73.55
55263;BME280;41125;48.752;9.168;2023-04-15T00:57:34;95885.87;;;5.01;73.51
55263;BME280;41125;48.752;9.168;2023-04-15T00:58:06;95885.66;;;4.97;73.90
55263;BME280;41125;48.752;9.168;2023-04-15T00:58:38;95890.78;;;4.94;73.97
55263;BME280;41125;48.752;9.168;2023-04-15T00:59:09;95892.44;;;4.90;74.67
55263;BME280;41125;48.752;9.168;2023-04-15T00:59:41;95886.00;;;4.86;74.80
55263;BME280;41125;48.752;9.168;2023-04-15T01:00:13;95895.47;;;4.83;75.29
55263;BME280;41125;48.752;9.168;2023-04-15T01:00:47;95893.03;;;4.82;75.49
55263;BME280;41125;48.752;9.168;2023-04-15T01:01:20;95889.31;;;4.78;75.65
55263;BME280;41125;48.752;9.168;2023-04-15T01:01:52;95898.47;;;4.77;76.04
55263;BME280;41125;48.752;9.168;2023-04-15T01:02:23;95897.94;;;4.75;76.46
55263;BME280;41125;48.752;9.168;2023-04-15T01:02:57;95884.00;;;4.67;76.47
55263;BME280;41125;48.752;9.168;2023-04-15T01:03:29;95895.59;;;4.63;76.66
55263;BME280;41125;48.752;9.168;2023-04-15T01:04:01;95892.37;;;4.61;76.91
55263;BME280;41125;48.752;9.168;2023-04-15T01:04:33;95884.59;;;4.59;77.07
55263;BME280;41125;48.752;9.168;2023-04-15T01:05:06;95892.94;;;4.58;76.58
55263;BME280;41125;48.752;9.168;2023-04-15T01:05:38;95892.13;;;4.57;77.06
55263;BME280;41125;48.752;9.168;2023-04-15T01:06:10;95892.13;;;4.57;77.08
55263;BME280;41125;48.752;9.168;2023-04-15T01:06:42;95887.31;;;4.54;77.31
55263;BME280;41125;48.752;9.168;2023-04-15T01:07:13;95892.44;;;4.51;78.21
55263;BME280;41125;48.752;9.168;2023-04-15T01:07:46;95890.59;;;4.46;78.45
55263;BME280;41125;48.752;9.168;2023-04-15T01:08:18;95891.16;;;4.43;78.48
55263;BME280;41125;48.752;9.168;2023-04-15T01:08:49;95894.41;;;4.40;78.34
55263;BME280;41125;48.752;9.168;2023-04-15T01:09:20;95889.31;;;4.38;78.06
55263;BME280;41125;48.752;9.168;2023-04-15T01:09:52;95898.97;;;4.40;78.13
55263;BME280;41125;48.752;9.168;2023-04-15T01:10:24;95893.87;;;4.38;78.38
55263;BME280;41125;48.752;9.168;2023-04-15T01:10:56;95892.25;;;4.37;78.08
55263;BME280;41125;48.752;9.168;2023-04-15T01:11:29;95893.87;;;4.38;77.23
55263;BME280;41125;48.752;9.168;2023-04-15T01:12:05;95890.91;;;4.40;77.19
55263;BME280;41125;48.752;9.168;2023-04-15T01:12:37;95883.38;;;4.42;76.91
55263;BME280;41125;48.752;9.168;2023-04-15T01:13:09;95887.41;;;4.44;77.66
55263;BME280;41125;48.752;9.168;2023-04-15T01:13:41;95887.41;;;4.44;77.50
55263;BME280;41125;48.752;9.168;2023-04-15T01:14:12;95885.22;;;4.46;76.92
55263;BME280;41125;48.752;9.168;2023-04-15T01:14:44;95889.81;;;4.46;76.90
55263;BME280;41125;48.752;9.168;2023-04-15T01:15:15;95890.31;;;4.48;76.58
55263;BME280;41125;48.752;9.168;2023-04-15T01:15:47;95879.31;;;4.49;76.07
55263;BME280;41125;48.752;9.168;2023-04-15T01:16:21;95888.97;;;4.50;76.31
55263;BME280;41125;48.752;9.168;2023-04-15T01:16:52;95878.72;;;4.52;76.22
55263;BME280;41125;48.752;9.168;2023-04-15T01:17:24;95876.56;;;4.54;76.31
55263;BME280;41125;48.752;9.168;2023-04-15T01:17:57;95879.78;;;4.56;76.25
55263;BME280;41125;48.752;9.168;2023-04-15T01:18:29;95874.91;;;4.58;76.08
55263;BME280;41125;48.752;9.168;2023-04-15T01:19:02;95874.66;;;4.60;75.50
55263;BME280;41125;48.752;9.168;2023-04-15T01:19:35;95882.44;;;4.61;75.44
55263;BME280;41125;48.752;9.168;2023-04-15T01:20:08;95875.69;;;4.64;75.08
55263;BME280;41125;48.752;9.168;2023-04-15T01:20:42;95877.03;;;4.66;75.00
55263;BME280;41125;48.752;9.168;2023-04-15T01:21:14;95872.97;;;4.69;74.82
55263;BME280;41125;48.752;9.168;2023-04-15T01:21:45;95879.16;;;4.69;74.94
55263;BME280;41125;48.752;9.168;2023-04-15T01:22:17;95874.03;;;4.73;74.51
55263;BME280;41125;48.752;9.168;2023-04-15T01:22:48;95877.22;;;4.75;74.63
55263;BME280;41125;48.752;9.168;2023-04-15T01:23:21;95875.88;;;4.78;74.51
55263;BME280;41125;48.752;9.168;2023-04-15T01:23:55;95880.69;;;4.81;74.34
55263;BME280;41125;48.752;9.168;2023-04-15T01:24:29;95880.69;;;4.81;74.02
55263;BME280;41125;48.752;9.168;2023-04-15T01:25:31;95877.44;;;4.84;74.25
55263;BME280;41125;48.752;9.168;2023-04-15T01:26:06;95871.00;;;4.85;73.96
55263;BME280;41125;48.752;9.168;2023-04-15T01:26:40;95868.78;;;4.87;73.80
55263;BME280;41125;48.752;9.168;2023-04-15T01:27:12;95876.56;;;4.88;73.66
55263;BME280;41125;48.752;9.168;2023-04-15T01:27:44;95872.00;;;4.89;73.48
55263;BME280;41125;48.752;9.168;2023-04-15T01:28:15;95875.22;;;4.91;73.30
55263;BME280;41125;48.752;9.168;2023-04-15T01:28:47;95875.22;;;4.91;73.45
55263;BME280;41125;48.752;9.168;2023-04-15T01:29:18;95871.44;;;4.92;73.23
55263;BME280;41125;48.752;9.168;2023-04-15T01:29:50;95880.84;;;4.94;73.01
55263;BME280;41125;48.752;9.168;2023-04-15T01:30:21;95876.25;;;4.95;73.05
55263;BME280;41125;48.752;9.168;2023-04-15T01:31:09;95876.78;;;4.97;72.76
55263;BME280;41125;48.752;9.168;2023-04-15T01:31:49;95875.69;;;4.98;72.78
55263;BME280;41125;48.752;9.168;2023-04-15T01:32:21;95867.63;;;4.98;72.42
55263;BME280;41125;48.752;9.168;2023-04-15T01:32:53;95873.53;;;5.00;72.57
55263;BME280;41125;48.752;9.168;2023-04-15T01:33:24;95870.56;;;5.01;72.58
55263;BME280;41125;48.752;9.168;2023-04-15T01:33:56;95869.47;;;5.02;72.31
55263;BME280;41125;48.752;9.168;2023-04-15T01:34:27;95866.00;;;5.02;72.24
55263;BME280;41125;48.752;9.168;2023-04-15T01:34:58;95876.75;;;5.02;72.39
55263;BME280;41125;48.752;9.168;2023-04-15T01:35:29;95875.13;;;5.01;72.29
55263;BME280;41125;48.752;9.168;2023-04-15T01:36:02;95868.16;;;5.00;72.16
55263;BME280;41125;48.752;9.168;2023-04-15T01:36:35;95878.91;;;5.00;72.12
55263;BME280;41125;48.752;9.168;2023-04-15T01:37:06;95870.31;;;4.98;72.30
55263;BME280;41125;48.752;9.168;2023-04-15T01:37:37;95875.69;;;4.98;72.40
55263;BME280;41125;48.752;9.168;2023-04-15T01:38:10;95871.41;;;4.97;72.39
55263;BME280;41125;48.752;9.168;2023-04-15T01:38:42;95873.28;;;4.96;72.36
55263;BME280;41125;48.752;9.168;2023-04-15T01:39:13;95866.31;;;4.95;72.47
55263;BME280;41125;48.752;9.168;2023-04-15T01:39:45;95870.87;;;4.95;72.65
55263;BME280;41125;48.752;9.168;2023-04-15T01:40:17;95877.34;;;4.94;72.74
55263;BME280;41125;48.752;9.168;2023-04-15T01:40:48;95876.28;;;4.90;73.45
55263;BME280;41125;48.752;9.168;2023-04-15T01:41:26;95871.75;;;4.85;73.85
55263;BME280;41125;48.752;9.168;2023-04-15T01:41:58;95872.88;;;4.84;73.65
55263;BME280;41125;48.752;9.168;2023-04-15T01:42:29;95873.16;;;4.83;74.07
55263;BME280;41125;48.752;9.168;2023-04-15T01:43:01;95868.63;;;4.78;74.53
55263;BME280;41125;48.752;9.168;2023-04-15T01:43:34;95873.75;;;4.75;74.62
55263;BME280;41125;48.752;9.168;2023-04-15T01:44:08;95872.69;;;4.70;74.91
55263;BME280;41125;48.752;9.168;2023-04-15T01:44:40;95879.72;;;4.66;75.05
55263;BME280;41125;48.752;9.168;2023-04-15T01:45:11;95876.50;;;4.64;75.14
55263;BME280;41125;48.752;9.168;2023-04-15T01:45:43;95873.28;;;4.62;74.85
55263;BME280;41125;48.752;9.168;2023-04-15T01:46:18;95869.53;;;4.63;74.50
55263;BME280;41125;48.752;9.168;2023-04-15T01:46:50;95874.88;;;4.63;74.54
55263;BME280;41125;48.752;9.168;2023-04-15T01:47:21;95867.91;;;4.62;74.54
55263;BME280;41125;48.752;9.168;2023-04-15T01:47:53;95872.22;;;4.63;74.63
55263;BME280;41125;48.752;9.168;2023-04-15T01:48:24;95870.59;;;4.62;75.12
55263;BME280;41125;48.752;9.168;2023-04-15T01:48:56;95870.06;;;4.60;75.07
55263;BME280;41125;48.752;9.168;2023-04-15T01:49:27;95876.25;;;4.61;74.82
55263;BME280;41125;48.752;9.168;2023-04-15T01:50:00;95870.59;;;4.62;74.35
55263;BME280;41125;48.752;9.168;2023-04-15T01:50:31;95868.44;;;4.64;74.42
55263;BME280;41125;48.752;9.168;2023-04-15T01:51:03;95870.84;;;4.66;74.17
55263;BME280;41125;48.752;9.168;2023-04-15T01:51:34;95879.72;;;4.66;74.06
55263;BME280;41125;48.752;9.168;2023-04-15T01:52:06;95878.91;;;4.66;74.05
55263;BME280;41125;48.752;9.168;2023-04-15T01:52:37;95871.13;;;4.64;74.53
55263;BME280;41125;48.752;9.168;2023-04-15T01:53:09;95869.53;;;4.63;74.52
55263;BME280;41125;48.752;9.168;2023-04-15T01:53:40;95874.38;;;4.61;74.77
55263;BME280;41125;48.752;9.168;2023-04-15T01:54:11;95879.22;;;4.59;75.10
55263;BME280;41125;48.752;9.168;2023-04-15T01:54:43;95866.88;;;4.58;74.88
55263;BME280;41125;48.752;9.168;2023-04-15T01:55:14;95876.00;;;4.57;75.39
55263;BME280;41125;48.752;9.168;2023-04-15T01:55:46;95877.09;;;4.56;75.51
55263;BME280;41125;48.752;9.168;2023-04-15T01:56:17;95873.88;;;4.54;75.87
55263;BME280;41125;48.752;9.168;2023-04-15T01:56:48;95879.53;;;4.53;75.86
55263;BME280;41125;48.752;9.168;2023-04-15T01:57:19;95877.13;;;4.51;75.89
55263;BME280;41125;48.752;9.168;2023-04-15T01:57:51;95874.75;;;4.50;76.12
55263;BME280;41125;48.752;9.168;2023-04-15T01:58:22;95872.31;;;4.48;75.85
55263;BME280;41125;48.752;9.168;2023-04-15T01:58:56;95884.44;;;4.46;76.80
55263;BME280;41125;48.752;9.168;2023-04-15T01:59:30;95884.19;;;4.42;76.67
55263;BME280;41125;48.752;9.168;2023-04-15T02:00:02;95880.97;;;4.40;76.83
55263;BME280;41125;48.752;9.168;2023-04-15T02:00:34;95879.38;;;4.39;76.22
55263;BME280;41125;48.752;9.168;2023-04-15T02:01:05;95878.28;;;4.40;75.94
55263;BME280;41125;48.752;9.168;2023-04-15T02:01:37;95875.59;;;4.40;76.12
55263;BME280;41125;48.752;9.168;2023-04-15T02:02:10;95879.63;;;4.43;75.83
55263;BME280;41125;48.752;9.168;2023-04-15T02:02:43;95886.59;;;4.44;75.80
55263;BME280;41125;48.752;9.168;2023-04-15T02:03:14;95880.41;;;4.43;76.03
55263;BME280;41125;48.752;9.168;2023-04-15T02:03:46;95882.03;;;4.44;75.53
55263;BME280;41125;48.752;9.168;2023-04-15T02:04:17;95871.28;;;4.44;75.74
55263;BME280;41125;48.752;9.168;2023-04-15T02:04:49;95874.50;;;4.46;75.62
55263;BME280;41125;48.752;9.168;2023-04-15T02:05:20;95871.81;;;4.46;75.55
55263;BME280;41125;48.752;9.168;2023-04-15T02:05:55;95866.16;;;4.48;75.67
55263;BME280;41125;48.752;9.168;2023-04-15T02:06:26;95873.94;;;4.49;75.42
55263;BME280;41125;48.752;9.168;2023-04-15T02:06:58;95873.94;;;4.49;75.37
55263;BME280;41125;48.752;9.168;2023-04-15T02:07:29;95873.94;;;4.49;75.44
55263;BME280;41125;48.752;9.168;2023-04-15T02:08:02;95872.31;;;4.48;75.76
55263;BME280;41125;48.752;9.168;2023-04-15T02:08:33;95881.47;;;4.47;75.97
55263;BME280;41125;48.752;9.168;2023-04-15T02:09:05;95870.19;;;4.45;75.97
55263;BME280;41125;48.752;9.168;2023-04-15T02:09:36;95876.66;;;4.44;76.30
55263;BME280;41125;48.752;9.168;2023-04-15T02:10:09;95870.47;;;4.44;76.02
55263;BME280;41125;48.752;9.168;2023-04-15T02:10:43;95860.00;;;4.42;76.21
55263;BME280;41125;48.752;9.168;2023-04-15T02:11:14;95878.81;;;4.42;75.94
55263;BME280;41125;48.752;9.168;2023-04-15T02:11:45;95875.31;;;4.42;76.75
55263;BME280;41125;48.752;9.168;2023-04-15T02:12:20;95866.47;;;4.41;77.45
55263;BME280;41125;48.752;9.168;2023-04-15T02:12:52;95876.69;;;4.39;77.28
55263;BME280;41125;48.752;9.168;2023-04-15T02:13:24;95872.38;;;4.38;77.23
55263;BME280;41125;48.752;9.168;2023-04-15T02:13:55;95875.34;;;4.36;76.82
55263;BME280;41125;48.752;9.168;2023-04-15T02:14:26;95874.53;;;4.36;76.77
55263;BME280;41125;48.752;9.168;2023-04-15T02:15:01;95882.06;;;4.34;77.17
55263;BME280;41125;48.752;9.168;2023-04-15T02:15:32;95867.31;;;4.31;76.94
55263;BME280;41125;48.752;9.168;2023-04-15T02:16:14;95869.72;;;4.33;77.10
55263;BME280;41125;48.752;9.168;2023-04-15T02:16:46;95880.47;;;4.33;77.08
55263;BME280;41125;48.752;9.168;2023-04-15T02:17:17;95878.84;;;4.32;77.52
55263;BME280;41125;48.752;9.168;2023-04-15T02:17:49;95879.41;;;4.29;78.47
55263;BME280;41125;48.752;9.168;2023-04-15T02:18:22;95873.00;;;4.25;78.53
55263;BME280;41125;48.752;9.168;2023-04-15T02:18:53;95881.59;;;4.22;78.68
55263;BME280;41125;48.752;9.168;2023-04-15T02:19:25;95878.91;;;4.22;78.58
55263;BME280;41125;48.752;9.168;2023-04-15T02:19:56;95869.25;;;4.21;78.21
55263;BME280;41125;48.752;9.168;2023-04-15T02:20:27;95873.53;;;4.22;77.72
55263;BME280;41125;48.752;9.168;2023-04-15T02:21:00;95875.16;;;4.23;77.52
55263;BME280;41125;48.752;9.168;2023-04-15T02:21:32;95874.59;;;4.26;77.48
55263;BME280;41125;48.752;9.168;2023-04-15T02:22:05;95873.50;;;4.27;77.34
55263;BME280;41125;48.752;9.168;2023-04-15T02:22:41;95868.66;;;4.29;77.11
55263;BME280;41125;48.752;9.168;2023-04-15T02:23:13;95866.50;;;4.31;76.81
55263;BME280;41125;48.752;9.168;2023-04-15T02:23:44;95879.66;;;4.32;76.70
55263;BME280;41125;48.752;9.168;2023-04-15T02:24:18;95869.72;;;4.33;76.47
55263;BME280;41125;48.752;9.168;2023-04-15T02:24:50;95869.44;;;4.34;76.66
55263;BME280;41125;48.752;9.168;2023-04-15T02:25:22;95869.16;;;4.36;76.34
55263;BME280;41125;48.752;9.168;2023-04-15T02:25:54;95865.41;;;4.37;76.11
55263;BME280;41125;48.752;9.168;2023-04-15T02:26:25;95864.84;;;4.40;76.23
55263;BME280;41125;48.752;9.168;2023-04-15T02:26:56;95860.28;;;4.41;75.89
55263;BME280;41125;48.752;9.168;2023-04-15T02:27:28;95864.03;;;4.45;75.72
55263;BME280;41125;48.752;9.168;2023-04-15T02:28:00;95862.13;;;4.45;75.67
55263;BME280;41125;48.752;9.168;2023-04-15T02:28:31;95869.91;;;4.47;75.75
55263;BME280;41125;48.752;9.168;2023-04-15T02:29:04;95869.13;;;4.46;75.70
55263;BME280;41125;48.752;9.168;2023-04-15T02:29:35;95865.62;;;4.46;75.78
55263;BME280;41125;48.752;9.168;2023-04-15T02:30:07;95871.28;;;4.44;76.50
55263;BME280;41125;48.752;9.168;2023-04-15T02:30:39;95870.75;;;4.42;76.34
55263;BME280;41125;48.752;9.168;2023-04-15T02:31:11;95868.88;;;4.43;76.05
55263;BME280;41125;48.752;9.168;2023-04-15T02:31:45;95870.22;;;4.40;76.59
55263;BME280;41125;48.752;9.168;2023-04-15T02:32:18;95871.84;;;4.36;77.02
55263;BME280;41125;48.752;9.168;2023-04-15T02:32:50;95875.09;;;4.33;77.40
55263;BME280;41125;48.752;9.168;2023-04-15T02:33:22;95867.31;;;4.31;76.67
55263;BME280;41125;48.752;9.168;2023-04-15T02:33:53;95868.13;;;4.32;76.62
55263;BME280;41125;48.752;9.168;2023-04-15T02:34:24;95867.03;;;4.33;76.41
55263;BME280;41125;48.752;9.168;2023-04-15T02:35:01;95871.34;;;4.34;76.49
55263;BME280;41125;48.752;9.168;2023-04-15T02:35:33;95857.91;;;4.34;76.37
55263;BME280;41125;48.752;9.168;2023-04-15T02:36:06;95869.16;;;4.36;76.57
55263;BME280;41125;48.752;9.168;2023-04-15T02:36:40;95859.22;;;4.36;76.44
55263;BME280;41125;48.752;9.168;2023-04-15T02:37:12;95857.34;;;4.37;76.26
55263;BME280;41125;48.752;9.168;2023-04-15T02:37:43;95858.69;;;4.40;76.30
55263;BME280;41125;48.752;9.168;2023-04-15T02:38:15;95856.78;;;4.40;76.01
55263;BME280;41125;48.752;9.168;2023-04-15T02:38:47;95858.41;;;4.41;75.63
55263;BME280;41125;48.752;9.168;2023-04-15T02:39:19;95860.81;;;4.43;75.72
55263;BME280;41125;48.752;9.168;2023-04-15T02:39:50;95854.34;;;4.44;75.32
55263;BME280;41125;48.752;9.168;2023-04-15T02:40:21;95860.53;;;4.44;75.49
55263;BME280;41125;48.752;9.168;2023-04-15T02:40:53;95853.00;;;4.46;75.28
55263;BME280;41125;48.752;9.168;2023-04-15T02:41:25;95858.38;;;4.46;75.36
55263;BME280;41125;48.752;9.168;2023-04-15T02:41:57;95859.97;;;4.47;75.09
55263;BME280;41125;48.752;9.168;2023-04-15T02:42:30;95857.50;;;4.51;74.80
55263;BME280;41125;48.752;9.168;2023-04-15T02:43:01;95861.00;;;4.51;74.77
55263;BME280;41125;48.752;9.168;2023-04-15T02:43:33;95858.84;;;4.53;74.42
55263;BME280;41125;48.752;9.168;2023-04-15T02:44:04;95862.03;;;4.55;74.08
55263;BME280;41125;48.752;9.168;2023-04-15T02:44:37;95862.03;;;4.55;74.14
55263;BME280;41125;48.752;9.168;2023-04-15T02:45:09;95863.66;;;4.56;74.05
55263;BME280;41125;48.752;9.168;2023-04-15T02:45:40;95863.66;;;4.56;74.20
55263;BME280;41125;48.752;9.168;2023-04-15T02:46:13;95852.91;;;4.56;74.20
55263;BME280;41125;48.752;9.168;2023-04-15T02:46:45;95856.13;;;4.58;74.03
55263;BME280;41125;48.752;9.168;2023-04-15T02:47:24;95855.03;;;4.59;73.81
55263;BME280;41125;48.752;9.168;2023-04-15T02:47:55;95853.94;;;4.60;73.57
55263;BME280;41125;48.752;9.168;2023-04-15T02:48:26;95863.09;;;4.59;73.40
55263;BME280;41125;48.752;9.168;2023-04-15T02:48:58;95859.59;;;4.59;73.25
55263;BME280;41125;48.752;9.168;2023-04-15T02:49:29;95855.03;;;4.59;73.12
55263;BME280;41125;48.752;9.168;2023-04-15T02:50:04;95853.44;;;4.58;73.08
55263;BME280;41125;48.752;9.168;2023-04-15T02:50:36;95862.28;;;4.59;73.14
55263;BME280;41125;48.752;9.168;2023-04-15T02:51:29;95863.91;;;4.60;72.97
55263;BME280;41125;48.752;9.168;2023-04-15T02:52:01;95853.16;;;4.60;73.11
55263;BME280;41125;48.752;9.168;2023-04-15T02:52:32;95852.34;;;4.59;72.96
55263;BME280;41125;48.752;9.168;2023-04-15T02:53:04;95856.66;;;4.60;73.17
55263;BME280;41125;48.752;9.168;2023-04-15T02:53:35;95859.31;;;4.60;73.01